LiveATC.Net - Listen to live air traffic control over the Internet!


ICAO: KVUO  IATA: VUO   Airport: Pearson Field Airport
City: Vancouver   State/Province: Washington
Country: United States   Continent: North America
KVUO METAR Weather: KVUO 201112Z AUTO 00000KT 5SM BR OVC008 07/07 A3032 RMK AO2 RAE1057 CIG 004V011 P0000 T00720067
KVUO Flight Activity (FlightAware)
KVUO Airport Info   (iFlightPlanner)
KVUO VFR Sectional Chart   (iFlightPlanner) 
KVUO IFR Low Altitude Chart   (iFlightPlanner) 
KVUO IFR High Altitude Chart   (iFlightPlanner) 

KVUO CTAF/Guard
Feed Status: UP   Listeners: 0
Listen in your browser - HTML5 player (in browser, HTML5)
Click here to listen with your own player (launches your MP3 player)
Archive Access: KVUO CTAF/Guard
FacilityFrequency
Emergency/Guard121.500
Pearson Clearance/CTAF119.000

NOTICE

Unauthorized use prohibited. See LiveATC.net Terms of Service


Airport/ARTCC Code
Frequency Search
(e.g., 124.400, 128.75)
Site-wide search
 


Browse Feeds
Top 50 Feeds
HF Oceanic Feeds
Coverage Map
Bad Weather Areas

LiveATC FAQ
Offer LiveATC feed
Contact LiveATC.net
Press Inquiries

LiveATC on iPhone
LiveATC on Android

LiveATC Mobile
(Mobile browser)

ATC Audio Archives
Interesting Recordings

LiveATC Forums


Home Page
About LiveATC.net
Make a Donation
Terms of Use
Privacy Policy

Canadian Air Freqs

AIRMETs/SIGMETs

FAA Airport Status
NAS Status
Arrival Demand


Server Software By:
Icecast.org
Liquidsoap